createdAt,value
2022-09-28T00:01:45.004Z,44.37
2022-09-28T00:04:12.623Z,44.28
2022-09-28T00:06:40.039Z,44.01
2022-09-28T00:09:07.229Z,45.75
2022-09-28T00:11:34.664Z,43.29
2022-09-28T00:14:03.576Z,42.31
2022-09-28T00:16:31.841Z,41.97
2022-09-28T00:19:00.492Z,42.22
2022-09-28T00:21:28.762Z,42.14
2022-09-28T00:24:15.706Z,41.61
2022-09-28T00:26:56.385Z,41.81
2022-09-28T00:29:30.570Z,43.42
2022-09-28T00:32:03.399Z,43.79
2022-09-28T00:34:31.987Z,43.80
2022-09-28T00:36:59.618Z,44.43
2022-09-28T00:39:27.188Z,43.59
2022-09-28T00:41:54.390Z,44.12
2022-09-28T00:44:34.090Z,44.93
2022-09-28T00:47:01.292Z,42.92
2022-09-28T00:49:33.112Z,45.02
2022-09-28T00:52:00.254Z,45.69
2022-09-28T00:54:27.393Z,44.92
2022-09-28T00:56:54.776Z,46.44
2022-09-28T00:59:24.687Z,45.14
2022-09-28T01:01:51.905Z,45.26
2022-09-28T01:04:19.595Z,43.99
2022-09-28T01:06:46.743Z,45.10
2022-09-28T01:09:14.451Z,43.62
2022-09-28T01:11:42.395Z,42.20
2022-09-28T01:14:11.315Z,42.72
2022-09-28T01:16:55.111Z,43.64
2022-09-28T01:19:26.230Z,45.24
2022-09-28T01:21:54.520Z,44.64
2022-09-28T01:24:33.201Z,46.20
2022-09-28T01:27:02.560Z,43.83
2022-09-28T01:29:33.488Z,44.27
2022-09-28T01:32:13.491Z,44.46
2022-09-28T01:35:00.977Z,43.79
2022-09-28T01:37:30.643Z,44.15
2022-09-28T01:39:57.782Z,43.27
2022-09-28T01:42:26.947Z,45.91
2022-09-28T01:44:54.859Z,46.40
2022-09-28T01:47:22.471Z,44.67
2022-09-28T01:50:00.669Z,43.55
2022-09-28T01:52:35.445Z,45.24
2022-09-28T01:55:04.102Z,42.51
2022-09-28T01:57:37.814Z,43.60
2022-09-28T02:00:06.909Z,44.14
2022-09-28T02:02:48.811Z,43.55
2022-09-28T02:05:40.174Z,45.39
2022-09-28T02:08:15.893Z,45.13
2022-09-28T02:10:50.803Z,43.68
2022-09-28T02:13:18.083Z,44.61
2022-09-28T02:15:45.532Z,43.81
2022-09-28T02:18:12.715Z,43.63
2022-09-28T02:20:40.600Z,42.98
2022-09-28T02:23:08.017Z,44.78
2022-09-28T02:25:38.395Z,44.22
2022-09-28T02:28:06.843Z,43.00
2022-09-28T02:30:36.390Z,45.43
2022-09-28T02:33:05.563Z,45.44
2022-09-28T02:35:35.327Z,43.02
2022-09-28T02:38:04.461Z,44.28
2022-09-28T02:40:32.485Z,41.95
2022-09-28T02:42:59.656Z,43.90
2022-09-28T02:45:34.210Z,44.40
2022-09-28T02:48:07.530Z,44.15
2022-09-28T02:50:39.597Z,42.93
2022-09-28T02:53:06.836Z,43.18
2022-09-28T02:55:39.759Z,42.01
2022-09-28T02:58:10.054Z,42.36
2022-09-28T03:01:09.850Z,43.53
2022-09-28T03:03:41.493Z,42.16
2022-09-28T03:06:16.036Z,41.75
2022-09-28T03:08:45.435Z,41.95
2022-09-28T03:11:14.910Z,41.50
2022-09-28T03:13:42.642Z,42.10
2022-09-28T03:16:15.265Z,41.84
2022-09-28T03:18:43.690Z,41.45
2022-09-28T03:21:11.568Z,41.30
2022-09-28T03:23:39.000Z,40.94
2022-09-28T03:26:07.581Z,40.96
2022-09-28T03:28:36.262Z,40.62
2022-09-28T03:31:03.799Z,41.07
2022-09-28T03:33:30.990Z,41.01
2022-09-28T03:35:58.843Z,41.28
2022-09-28T03:38:26.211Z,40.85
2022-09-28T03:40:58.290Z,41.36
2022-09-28T03:43:26.432Z,41.00
2022-09-28T03:45:55.266Z,40.87
2022-09-28T03:48:28.798Z,40.74
2022-09-28T03:51:00.295Z,41.86
2022-09-28T03:53:28.863Z,42.05
2022-09-28T03:55:56.653Z,41.55
2022-09-28T03:58:24.062Z,41.88
2022-09-28T04:00:54.248Z,41.36
2022-09-28T04:03:22.015Z,41.25
2022-09-28T04:05:51.812Z,40.82
2022-09-28T04:08:19.226Z,42.70
2022-09-28T04:10:46.747Z,41.70
2022-09-28T04:13:13.899Z,43.69
2022-09-28T04:15:41.391Z,43.59
2022-09-28T04:18:11.818Z,43.76
2022-09-28T04:20:46.038Z,42.84
2022-09-28T04:23:15.790Z,43.48
2022-09-28T04:25:47.800Z,43.83
2022-09-28T04:28:34.225Z,45.28
2022-09-28T04:31:01.372Z,46.98
2022-09-28T04:33:29.100Z,46.66
2022-09-28T04:35:56.363Z,45.42
2022-09-28T04:38:41.521Z,44.06
2022-09-28T04:41:12.293Z,42.74
2022-09-28T04:43:40.129Z,42.59
2022-09-28T04:46:07.450Z,42.05
2022-09-28T04:48:37.366Z,41.77
2022-09-28T04:51:04.589Z,42.51
2022-09-28T04:53:31.766Z,42.84
2022-09-28T04:55:59.973Z,42.21
2022-09-28T04:58:27.273Z,41.74
2022-09-28T05:00:57.100Z,41.46
2022-09-28T05:03:26.872Z,41.56
2022-09-28T05:05:54.430Z,41.36
2022-09-28T05:08:22.071Z,41.19
2022-09-28T05:10:49.532Z,41.06
2022-09-28T05:13:18.695Z,41.14
2022-09-28T05:15:45.915Z,40.75
2022-09-28T05:18:14.214Z,40.62
2022-09-28T05:20:42.214Z,40.35
2022-09-28T05:23:10.034Z,40.47
2022-09-28T05:25:37.529Z,40.30
2022-09-28T05:28:05.885Z,39.95
2022-09-28T05:30:36.716Z,39.76
2022-09-28T05:33:05.085Z,39.93
2022-09-28T05:35:32.802Z,40.29
2022-09-28T05:38:04.448Z,40.65
2022-09-28T05:40:32.103Z,40.13
2022-09-28T05:43:00.692Z,40.95
2022-09-28T05:45:28.989Z,40.99
2022-09-28T05:47:56.717Z,40.66
2022-09-28T05:50:24.021Z,41.25
2022-09-28T05:53:01.353Z,41.38
2022-09-28T05:55:29.118Z,41.74
2022-09-28T05:57:59.839Z,41.35
2022-09-28T06:00:27.517Z,40.64
2022-09-28T06:03:08.964Z,41.38
2022-09-28T06:05:37.134Z,41.66
2022-09-28T06:08:05.374Z,42.09
2022-09-28T06:10:33.422Z,41.52
2022-09-28T06:13:01.266Z,42.93
2022-09-28T06:15:29.561Z,42.93
2022-09-28T06:17:57.382Z,42.86
2022-09-28T06:20:26.241Z,42.44
2022-09-28T06:22:55.163Z,42.10
2022-09-28T06:25:23.116Z,42.34
2022-09-28T06:27:56.655Z,42.84
2022-09-28T06:30:26.873Z,41.56
2022-09-28T06:32:55.037Z,43.19
2022-09-28T06:35:22.580Z,40.34
2022-09-28T06:37:51.399Z,42.33
2022-09-28T06:40:19.154Z,41.99
2022-09-28T06:43:02.458Z,42.36
2022-09-28T06:45:30.422Z,42.80
2022-09-28T06:48:00.964Z,43.32
2022-09-28T06:50:32.354Z,42.62
2022-09-28T06:53:02.327Z,43.22
2022-09-28T06:55:30.244Z,43.95
2022-09-28T06:57:59.131Z,43.95
2022-09-28T07:00:27.259Z,41.81
2022-09-28T07:02:55.064Z,41.79
2022-09-28T07:05:26.816Z,40.36
2022-09-28T07:07:55.311Z,39.70
2022-09-28T07:10:27.795Z,39.77
2022-09-28T07:12:57.113Z,39.75
2022-09-28T07:15:25.417Z,41.99
2022-09-28T07:18:02.420Z,41.59
2022-09-28T07:20:34.527Z,39.23
2022-09-28T07:23:16.413Z,39.81
2022-09-28T07:25:48.041Z,42.26
2022-09-28T07:28:18.577Z,38.81
2022-09-28T07:30:47.287Z,40.94
2022-09-28T07:33:15.902Z,41.90
2022-09-28T07:35:50.753Z,39.70
2022-09-28T07:38:18.602Z,41.03
2022-09-28T07:41:04.259Z,40.94
2022-09-28T07:43:32.384Z,40.67
2022-09-28T07:45:59.638Z,40.78
2022-09-28T07:48:26.892Z,40.38
2022-09-28T07:50:55.335Z,41.50
2022-09-28T07:53:24.880Z,42.61
2022-09-28T07:55:52.935Z,40.40
2022-09-28T07:58:21.417Z,40.28
2022-09-28T08:00:49.303Z,40.65
2022-09-28T08:03:17.747Z,41.05
2022-09-28T08:05:45.735Z,40.92
2022-09-28T08:08:13.347Z,40.02
2022-09-28T08:10:46.830Z,38.56
2022-09-28T08:13:16.689Z,38.84
2022-09-28T08:15:51.120Z,38.96
2022-09-28T08:18:19.168Z,38.13
2022-09-28T08:21:05.144Z,40.83
2022-09-28T08:23:32.374Z,39.84
2022-09-28T08:26:00.657Z,39.04
2022-09-28T08:28:27.827Z,39.70
2022-09-28T08:30:55.866Z,38.49
2022-09-28T08:33:24.786Z,38.33
2022-09-28T08:36:06.167Z,39.44
2022-09-28T08:38:33.886Z,39.64
2022-09-28T08:41:20.892Z,39.00
2022-09-28T08:44:03.798Z,38.79
2022-09-28T08:46:51.264Z,39.16
2022-09-28T08:49:25.266Z,38.70
2022-09-28T08:52:06.267Z,39.71
2022-09-28T08:54:36.868Z,40.27
2022-09-28T08:57:13.586Z,40.33
2022-09-28T08:59:43.862Z,41.73
2022-09-28T09:02:15.518Z,40.49
2022-09-28T09:04:42.955Z,41.44
2022-09-28T09:07:29.031Z,40.37
2022-09-28T09:10:14.796Z,41.25
2022-09-28T09:12:58.674Z,41.59
2022-09-28T09:15:26.219Z,38.94
2022-09-28T09:17:53.450Z,40.32
2022-09-28T09:20:26.109Z,40.76
2022-09-28T09:22:57.792Z,40.56
2022-09-28T09:25:24.924Z,40.86
2022-09-28T09:28:11.825Z,41.91
2022-09-28T09:30:44.174Z,41.36
2022-09-28T09:33:30.143Z,39.31
2022-09-28T09:35:58.944Z,40.64
2022-09-28T09:38:40.798Z,41.20
2022-09-28T09:41:25.190Z,41.50
2022-09-28T09:43:59.935Z,41.23
2022-09-28T09:46:43.065Z,41.84
2022-09-28T09:49:23.842Z,41.92
2022-09-28T09:51:51.387Z,42.76
2022-09-28T09:54:21.487Z,41.30
2022-09-28T09:56:50.313Z,40.41
2022-09-28T09:59:19.692Z,40.50
2022-09-28T10:01:48.282Z,40.51
2022-09-28T10:04:24.381Z,41.47
2022-09-28T10:06:53.947Z,41.01
2022-09-28T10:09:26.896Z,41.36
2022-09-28T10:11:56.309Z,41.74
2022-09-28T10:14:24.505Z,39.12
2022-09-28T10:16:53.770Z,40.17
2022-09-28T10:19:22.230Z,40.04
2022-09-28T10:21:53.412Z,39.54
2022-09-28T10:24:23.323Z,39.23
2022-09-28T10:26:50.919Z,39.65
2022-09-28T10:29:21.825Z,39.96
2022-09-28T10:31:50.036Z,38.17
2022-09-28T10:34:19.707Z,39.16
2022-09-28T10:36:51.073Z,40.39
2022-09-28T10:39:23.348Z,39.25
2022-09-28T10:41:50.484Z,41.69
2022-09-28T10:44:18.755Z,39.86
2022-09-28T10:46:46.492Z,40.94
2022-09-28T10:49:15.805Z,40.14
2022-09-28T10:51:43.512Z,38.59
2022-09-28T10:54:20.022Z,39.17
2022-09-28T10:56:47.949Z,38.56
2022-09-28T10:59:24.416Z,37.41
2022-09-28T11:01:55.987Z,36.89
2022-09-28T11:04:24.532Z,36.73
2022-09-28T11:06:51.908Z,38.44
2022-09-28T11:09:32.155Z,39.20
2022-09-28T11:12:00.324Z,38.86
2022-09-28T11:14:29.110Z,38.82
2022-09-28T11:17:32.955Z,38.04
2022-09-28T11:20:01.612Z,39.09
2022-09-28T11:22:30.215Z,38.59
2022-09-28T11:25:16.187Z,38.27
2022-09-28T11:27:55.143Z,38.97
2022-09-28T11:30:31.535Z,39.37
2022-09-28T11:33:04.094Z,40.66
2022-09-28T11:35:42.991Z,38.92
2022-09-28T11:38:16.545Z,38.06
2022-09-28T11:40:56.920Z,37.38
2022-09-28T11:43:24.411Z,38.32
2022-09-28T11:45:55.391Z,38.02
2022-09-28T11:48:24.036Z,38.80
2022-09-28T11:50:56.248Z,39.30
2022-09-28T11:53:30.276Z,40.17
2022-09-28T11:56:11.906Z,39.21
2022-09-28T11:59:08.994Z,38.93
2022-09-28T12:01:50.230Z,40.23
2022-09-28T12:04:20.461Z,37.94
2022-09-28T12:06:51.852Z,39.44
2022-09-28T12:09:24.877Z,37.63
2022-09-28T12:11:54.783Z,36.81
2022-09-28T12:14:29.391Z,37.75
2022-09-28T12:17:11.027Z,37.20
2022-09-28T12:19:39.388Z,37.89
2022-09-28T12:22:16.335Z,37.21
2022-09-28T12:24:47.603Z,37.07
2022-09-28T12:27:21.047Z,38.60
2022-09-28T12:29:51.689Z,38.70
2022-09-28T12:32:38.723Z,39.41
2022-09-28T12:35:13.649Z,39.33
2022-09-28T12:37:46.927Z,38.25
2022-09-28T12:40:29.819Z,37.51
2022-09-28T12:43:04.367Z,37.56
2022-09-28T12:46:09.903Z,38.16
2022-09-28T12:48:36.292Z,38.97
2022-09-28T12:51:07.994Z,38.21
2022-09-28T12:53:35.175Z,38.91
2022-09-28T12:56:03.500Z,38.35
2022-09-28T12:58:40.775Z,39.29
2022-09-28T13:01:19.987Z,38.29
2022-09-28T13:03:47.406Z,38.90
2022-09-28T13:06:17.559Z,38.21
2022-09-28T13:09:03.907Z,38.74
2022-09-28T13:11:43.685Z,38.06
2022-09-28T13:14:16.780Z,37.00
2022-09-28T13:17:03.359Z,36.60
2022-09-28T13:19:36.497Z,36.66
2022-09-28T13:22:22.486Z,37.81
2022-09-28T13:24:49.633Z,39.21
2022-09-28T13:27:19.451Z,37.53
2022-09-28T13:29:47.061Z,37.75
2022-09-28T13:32:15.139Z,37.10
2022-09-28T13:34:42.772Z,36.32
2022-09-28T13:37:16.915Z,36.87
2022-09-28T13:39:44.327Z,37.79
2022-09-28T13:42:31.905Z,38.03
2022-09-28T13:45:38.125Z,37.15
2022-09-28T13:48:17.859Z,36.00
2022-09-28T13:50:54.921Z,36.06
2022-09-28T13:53:51.222Z,35.68
2022-09-28T13:56:18.766Z,35.81
2022-09-28T13:58:51.481Z,36.07
2022-09-28T14:01:19.457Z,37.19
2022-09-28T14:03:57.359Z,36.25
2022-09-28T14:06:27.504Z,36.90
2022-09-28T14:09:13.647Z,36.55
2022-09-28T14:11:42.575Z,37.05
2022-09-28T14:14:13.953Z,38.21
2022-09-28T14:16:41.454Z,37.99
2022-09-28T14:19:24.644Z,38.42
2022-09-28T14:22:01.393Z,37.15
2022-09-28T14:24:34.611Z,37.87
2022-09-28T14:27:06.363Z,38.41
2022-09-28T14:29:34.481Z,37.78
2022-09-28T14:32:05.939Z,37.46
2022-09-28T14:34:43.116Z,37.42
2022-09-28T14:37:39.616Z,37.33
2022-09-28T14:40:49.374Z,36.32
2022-09-28T14:43:24.794Z,37.00
2022-09-28T14:46:23.213Z,37.50
2022-09-28T14:48:52.713Z,36.24
2022-09-28T14:51:33.909Z,37.07
2022-09-28T14:54:04.852Z,36.76
2022-09-28T14:56:33.551Z,36.43
2022-09-28T14:59:00.687Z,36.68
2022-09-28T15:01:28.093Z,35.86
2022-09-28T15:03:55.816Z,36.38
2022-09-28T15:06:23.378Z,37.10
2022-09-28T15:08:50.793Z,37.55
2022-09-28T15:11:24.588Z,36.54
2022-09-28T15:13:55.630Z,36.47
2022-09-28T15:16:23.249Z,36.27
2022-09-28T15:18:57.621Z,37.52
2022-09-28T15:21:31.752Z,37.82
2022-09-28T15:23:58.899Z,36.72
2022-09-28T15:26:28.949Z,37.21
2022-09-28T15:28:56.131Z,37.31
2022-09-28T15:31:25.606Z,37.33
2022-09-28T15:34:11.848Z,37.97
2022-09-28T15:36:42.310Z,36.79
2022-09-28T15:39:20.102Z,36.30
2022-09-28T15:41:47.903Z,36.94
2022-09-28T15:44:15.316Z,36.83
2022-09-28T15:46:42.915Z,36.83
2022-09-28T15:49:20.511Z,37.44
2022-09-28T15:51:49.618Z,36.98
2022-09-28T15:54:19.631Z,37.31
2022-09-28T15:56:51.953Z,35.84
2022-09-28T15:59:25.020Z,36.24
2022-09-28T16:02:04.097Z,35.67
2022-09-28T16:04:38.350Z,37.07
2022-09-28T16:07:05.486Z,35.26
2022-09-28T16:09:36.111Z,35.67
2022-09-28T16:12:09.131Z,36.55
2022-09-28T16:14:36.269Z,37.09
2022-09-28T16:17:04.036Z,37.17
2022-09-28T16:19:32.328Z,37.28
2022-09-28T16:21:59.891Z,38.48
2022-09-28T16:24:32.212Z,36.92
2022-09-28T16:27:04.108Z,37.37
2022-09-28T16:29:39.968Z,38.30
2022-09-28T16:32:25.938Z,37.96
2022-09-28T16:35:08.545Z,37.02
2022-09-28T16:37:35.956Z,37.37
2022-09-28T16:40:03.815Z,37.17
2022-09-28T16:42:30.954Z,36.70
2022-09-28T16:44:58.371Z,36.29
2022-09-28T16:47:25.503Z,36.59
2022-09-28T16:49:52.673Z,38.02
2022-09-28T16:52:40.008Z,37.04
2022-09-28T16:58:04.893Z,37.41
2022-09-28T17:00:32.497Z,36.51
2022-09-28T17:02:59.793Z,37.05
2022-09-28T17:05:27.306Z,37.61
2022-09-28T17:08:04.429Z,38.53
2022-09-28T17:11:02.586Z,39.65
2022-09-28T17:13:36.128Z,39.76
2022-09-28T17:16:09.002Z,39.04
2022-09-28T17:18:38.986Z,39.52
2022-09-28T17:21:07.573Z,38.75
2022-09-28T17:23:34.740Z,38.23
2022-09-28T17:26:01.891Z,39.61
2022-09-28T17:28:33.049Z,39.15
2022-09-28T17:31:00.495Z,38.70
2022-09-28T17:33:28.396Z,39.11
2022-09-28T17:36:00.164Z,39.75
2022-09-28T17:38:27.626Z,39.08
2022-09-28T17:40:55.078Z,39.86
2022-09-28T17:43:22.847Z,41.18
2022-09-28T17:45:50.422Z,40.72
2022-09-28T17:48:19.429Z,40.57
2022-09-28T17:50:47.511Z,41.00
2022-09-28T17:53:15.021Z,42.97
2022-09-28T17:55:43.142Z,42.47
2022-09-28T17:58:17.919Z,42.38
2022-09-28T18:00:48.863Z,40.92
2022-09-28T18:03:20.286Z,41.96
2022-09-28T18:05:49.094Z,42.49
2022-09-28T18:08:20.653Z,42.61
2022-09-28T18:10:47.904Z,42.19
2022-09-28T18:13:15.035Z,42.40
2022-09-28T18:15:42.819Z,42.67
2022-09-28T18:18:10.405Z,42.34
2022-09-28T18:20:37.650Z,43.60
2022-09-28T18:23:05.275Z,43.50
2022-09-28T18:25:32.418Z,43.60
2022-09-28T18:28:00.191Z,44.36
2022-09-28T18:30:27.845Z,42.93
2022-09-28T18:32:55.030Z,43.05
2022-09-28T18:35:23.351Z,43.76
2022-09-28T18:37:51.234Z,43.12
2022-09-28T18:40:19.479Z,44.10
2022-09-28T18:42:46.847Z,44.06
2022-09-28T18:45:17.240Z,43.04
2022-09-28T18:47:45.189Z,43.55
2022-09-28T18:50:13.161Z,43.12
2022-09-28T18:52:43.040Z,43.55
2022-09-28T18:55:11.018Z,44.27
2022-09-28T18:57:39.971Z,44.36
2022-09-28T19:00:08.853Z,43.31
2022-09-28T19:02:36.286Z,43.60
2022-09-28T19:05:03.948Z,42.91
2022-09-28T19:07:31.930Z,43.43
2022-09-28T19:09:59.127Z,44.42
2022-09-28T19:12:26.421Z,43.73
2022-09-28T19:14:53.801Z,43.76
2022-09-28T19:17:21.289Z,43.90
2022-09-28T19:19:48.395Z,44.19
2022-09-28T19:22:15.850Z,44.54
2022-09-28T19:24:43.006Z,44.42
2022-09-28T19:27:10.366Z,43.67
2022-09-28T19:29:37.763Z,43.54
2022-09-28T19:32:04.898Z,43.43
2022-09-28T19:34:32.050Z,43.46
2022-09-28T19:37:03.870Z,43.68
2022-09-28T19:39:31.204Z,44.04
2022-09-28T19:41:59.744Z,44.06
2022-09-28T19:44:28.097Z,44.77
2022-09-28T19:46:55.338Z,45.48
2022-09-28T19:49:23.028Z,45.46
2022-09-28T19:52:11.684Z,44.44
2022-09-28T19:54:38.359Z,44.65
2022-09-28T19:57:08.056Z,44.68
2022-09-28T19:59:36.661Z,44.37
2022-09-28T20:02:04.804Z,44.23
2022-09-28T20:04:32.193Z,43.77
2022-09-28T20:06:59.325Z,44.01
2022-09-28T20:09:26.435Z,44.91
2022-09-28T20:11:53.821Z,45.02
2022-09-28T20:14:23.391Z,45.18
2022-09-28T20:16:53.104Z,44.63
2022-09-28T20:19:21.565Z,44.17
2022-09-28T20:21:48.830Z,44.58
2022-09-28T20:24:19.042Z,44.62
2022-09-28T20:26:46.424Z,44.54
2022-09-28T20:29:13.597Z,44.81
2022-09-28T20:31:40.884Z,44.26
2022-09-28T20:34:08.944Z,44.69
2022-09-28T20:36:36.091Z,44.08
2022-09-28T20:39:03.349Z,44.87
2022-09-28T20:41:36.701Z,45.54
2022-09-28T20:44:06.343Z,45.46
2022-09-28T20:46:34.922Z,45.35
2022-09-28T20:49:02.400Z,47.70
2022-09-28T20:51:29.509Z,45.94
2022-09-28T20:53:57.385Z,48.28
2022-09-28T20:56:25.616Z,49.22
2022-09-28T20:58:53.322Z,47.95
2022-09-28T21:01:21.899Z,47.19
2022-09-28T21:03:50.373Z,47.50
2022-09-28T21:06:18.055Z,46.40
2022-09-28T21:08:45.854Z,45.74
2022-09-28T21:11:13.733Z,45.83
2022-09-28T21:13:42.906Z,45.57
2022-09-28T21:16:10.961Z,45.49
2022-09-28T21:18:38.867Z,44.67
2022-09-28T21:21:07.868Z,44.66
2022-09-28T21:23:35.894Z,45.45
2022-09-28T21:26:06.194Z,45.05
2022-09-28T21:28:33.559Z,44.34
2022-09-28T21:31:01.771Z,44.63
2022-09-28T21:33:28.961Z,44.13
2022-09-28T21:35:56.069Z,44.42
2022-09-28T21:38:23.510Z,45.05
2022-09-28T21:40:53.806Z,44.83
2022-09-28T21:43:20.949Z,44.57
2022-09-28T21:45:54.599Z,44.16
2022-09-28T21:48:22.199Z,44.25
2022-09-28T21:50:59.846Z,44.20
2022-09-28T21:53:28.970Z,44.56
2022-09-28T21:55:56.491Z,44.12
2022-09-28T21:58:24.345Z,44.43
2022-09-28T22:00:59.058Z,44.46
2022-09-28T22:03:26.920Z,44.24
